Time;durP1;ratioP1;P1;durP2;ratioP2;P2;SDS_P1;SDS_P2;PMS_P1;PMS_P2;Temp;Humidity;BMP_temperature;BMP_pressure;BME280_temperature;BME280_humidity;BME280_pressure;Samples;Min_cycle;Max_cycle;Signal;HPM_P1;HPM_P2
2021/10/14 00:01:35;;;;;;;1.90;0.90;;;;;;;;;;4827659;29;32594;-67
2021/10/14 00:04:01;;;;;;;2.05;1.08;;;;;;;;;;4827776;29;32454;-67
2021/10/14 00:06:28;;;;;;;2.90;1.10;;;;;;;;;;4827720;29;32901;-67
2021/10/14 00:08:54;;;;;;;2.45;1.15;;;;;;;;;;4827418;29;32448;-65
2021/10/14 00:11:21;;;;;;;1.75;0.90;;;;;;;;;;4827219;29;32607;-66
2021/10/14 00:13:48;;;;;;;5.43;1.02;;;;;;;;;;4826426;29;32495;-65
2021/10/14 00:16:15;;;;;;;4.50;2.08;;;;;;;;;;4827615;29;32487;-67
2021/10/14 00:18:44;;;;;;;1.85;0.85;;;;;;;;;;4826423;29;57340;-65
2021/10/14 00:21:10;;;;;;;;;;;;;;;;;;4825925;29;34932;-66
2021/10/14 00:23:37;;;;;;;3.00;1.27;;;;;;;;;;4821041;29;32340;-65
2021/10/14 00:26:04;;;;;;;4.00;1.08;;;;;;;;;;4823399;29;33538;-65
2021/10/14 00:28:31;;;;;;;1.50;0.90;;;;;;;;;;4807202;29;32348;-68
2021/10/14 00:30:57;;;;;;;2.70;0.90;;;;;;;;;;4819213;29;32691;-65
2021/10/14 00:33:25;;;;;;;2.42;1.17;;;;;;;;;;4825333;29;32850;-65
2021/10/14 00:35:52;;;;;;;3.30;1.05;;;;;;;;;;4825649;29;32758;-65
2021/10/14 00:38:18;;;;;;;2.25;0.88;;;;;;;;;;4825692;29;32826;-65
2021/10/14 00:40:45;;;;;;;2.50;1.00;;;;;;;;;;4826507;29;32418;-68
2021/10/14 00:43:12;;;;;;;1.40;0.90;;;;;;;;;;4828069;29;33946;-65
2021/10/14 00:45:39;;;;;;;3.90;1.10;;;;;;;;;;4828015;29;32457;-65
2021/10/14 00:48:06;;;;;;;;;;;;;;;;;;4828372;29;32535;-64
2021/10/14 00:50:34;;;;;;;2.80;1.02;;;;;;;;;;4828269;29;32422;-65
2021/10/14 00:53:01;;;;;;;3.35;1.00;;;;;;;;;;4828679;29;32343;-65
2021/10/14 00:55:27;;;;;;;;;;;;;;;;;;4827681;29;32625;-67
2021/10/14 00:57:54;;;;;;;3.70;0.82;;;;;;;;;;4827038;29;32532;-65
2021/10/14 01:00:21;;;;;;;4.20;0.95;;;;;;;;;;4826826;29;32560;-67
2021/10/14 01:02:47;;;;;;;2.33;0.88;;;;;;;;;;4825182;29;32509;-65
2021/10/14 01:05:14;;;;;;;2.95;0.95;;;;;;;;;;4826883;29;34450;-67
2021/10/14 01:07:42;;;;;;;2.08;0.90;;;;;;;;;;4826315;29;32533;-66
2021/10/14 01:10:10;;;;;;;3.08;1.02;;;;;;;;;;4826551;29;32612;-68
2021/10/14 01:12:38;;;;;;;2.80;1.00;;;;;;;;;;4827004;29;32464;-67
2021/10/14 01:15:16;;;;;;;3.20;1.15;;;;;;;;;;4827139;29;32414;-68
2021/10/14 01:17:43;;;;;;;2.60;1.20;;;;;;;;;;4826877;29;32314;-66
2021/10/14 01:20:11;;;;;;;3.38;1.35;;;;;;;;;;4826849;29;32429;-68
2021/10/14 01:22:38;;;;;;;1.80;1.17;;;;;;;;;;4826718;29;32468;-66
2021/10/14 01:25:07;;;;;;;1.70;1.02;;;;;;;;;;4826939;29;32358;-68
2021/10/14 01:27:33;;;;;;;3.33;1.63;;;;;;;;;;4826772;29;34471;-66
2021/10/14 01:30:00;;;;;;;2.55;1.27;;;;;;;;;;4826961;29;32424;-66
2021/10/14 01:32:26;;;;;;;2.75;1.25;;;;;;;;;;4822236;29;32511;-66
2021/10/14 01:34:53;;;;;;;1.35;1.13;;;;;;;;;;4826488;29;32459;-68
2021/10/14 01:37:21;;;;;;;3.03;1.83;;;;;;;;;;4822425;29;32392;-68
2021/10/14 01:39:47;;;;;;;3.05;1.52;;;;;;;;;;4826868;29;32520;-67
2021/10/14 01:42:13;;;;;;;3.10;1.33;;;;;;;;;;4826560;29;32421;-66
2021/10/14 01:44:40;;;;;;;4.10;1.40;;;;;;;;;;4826850;29;32394;-65
2021/10/14 01:47:07;;;;;;;3.78;1.25;;;;;;;;;;4821766;29;32444;-67
2021/10/14 01:49:33;;;;;;;2.47;1.08;;;;;;;;;;4817265;29;34181;-66
2021/10/14 01:51:59;;;;;;;3.65;1.40;;;;;;;;;;4808440;29;32531;-65
2021/10/14 01:54:27;;;;;;;1.70;0.93;;;;;;;;;;4808753;29;32796;-67
2021/10/14 01:56:54;;;;;;;3.20;1.33;;;;;;;;;;4808754;29;32550;-64
2021/10/14 01:59:20;;;;;;;4.03;1.33;;;;;;;;;;4808590;29;34626;-65
2021/10/14 02:01:47;;;;;;;4.55;1.30;;;;;;;;;;4821257;29;32457;-67
2021/10/14 02:04:13;;;;;;;5.32;1.25;;;;;;;;;;4826387;29;32600;-65
2021/10/14 02:06:40;;;;;;;2.90;1.00;;;;;;;;;;4825963;29;32717;-66
2021/10/14 02:09:06;;;;;;;4.60;1.00;;;;;;;;;;4824645;29;32504;-65
2021/10/14 02:11:34;;;;;;;3.55;1.08;;;;;;;;;;4814545;29;34540;-64
2021/10/14 02:14:00;;;;;;;2.70;1.60;;;;;;;;;;4809468;29;32518;-68
2021/10/14 02:16:27;;;;;;;2.58;1.05;;;;;;;;;;4809329;29;32378;-66
2021/10/14 02:18:53;;;;;;;2.67;1.45;;;;;;;;;;4810571;29;32665;-68
2021/10/14 02:21:20;;;;;;;3.05;1.20;;;;;;;;;;4810135;29;34793;-65
2021/10/14 02:23:46;;;;;;;4.82;1.30;;;;;;;;;;4810465;29;32751;-65
2021/10/14 02:26:13;;;;;;;1.90;1.40;;;;;;;;;;4815356;29;32359;-66
2021/10/14 02:28:40;;;;;;;3.40;1.52;;;;;;;;;;4828857;29;32627;-64
2021/10/14 02:31:07;;;;;;;2.85;1.30;;;;;;;;;;4821057;29;32762;-64
2021/10/14 02:33:33;;;;;;;2.70;1.52;;;;;;;;;;4810200;29;34038;-64
2021/10/14 02:36:00;;;;;;;2.53;1.13;;;;;;;;;;4810276;29;32562;-65
2021/10/14 02:38:26;;;;;;;1.88;1.23;;;;;;;;;;4814494;29;33222;-66
2021/10/14 02:40:53;;;;;;;3.10;1.35;;;;;;;;;;4817378;29;32459;-64
2021/10/14 02:43:19;;;;;;;3.92;1.15;;;;;;;;;;4818067;29;34192;-65
2021/10/14 02:45:47;;;;;;;3.17;1.13;;;;;;;;;;4815606;29;32465;-65
2021/10/14 02:48:13;;;;;;;3.75;1.42;;;;;;;;;;4818495;29;32783;-65
2021/10/14 02:50:40;;;;;;;5.82;1.35;;;;;;;;;;4817092;29;32583;-65
2021/10/14 02:53:06;;;;;;;3.83;1.45;;;;;;;;;;4809650;29;32460;-65
2021/10/14 02:55:33;;;;;;;4.47;1.45;;;;;;;;;;4809626;29;34146;-65
2021/10/14 02:57:59;;;;;;;3.72;1.52;;;;;;;;;;4810168;29;32347;-65
2021/10/14 03:00:26;;;;;;;4.63;1.73;;;;;;;;;;4810192;29;32402;-64
2021/10/14 03:02:54;;;;;;;4.97;1.75;;;;;;;;;;4822626;29;32406;-65
2021/10/14 03:05:20;;;;;;;4.53;2.13;;;;;;;;;;4827978;29;35378;-65
2021/10/14 03:07:47;;;;;;;6.93;1.70;;;;;;;;;;4822679;29;32539;-64
2021/10/14 03:10:13;;;;;;;5.95;1.98;;;;;;;;;;4821793;29;32459;-65
2021/10/14 03:12:40;;;;;;;7.07;1.80;;;;;;;;;;4827592;29;32535;-65
2021/10/14 03:15:07;;;;;;;6.07;1.75;;;;;;;;;;4828540;29;32238;-64
2021/10/14 03:17:34;;;;;;;5.85;1.55;;;;;;;;;;4828173;29;35704;-65
2021/10/14 03:20:03;;;;;;;6.13;1.50;;;;;;;;;;4828050;29;32512;-65
2021/10/14 03:22:30;;;;;;;4.97;1.63;;;;;;;;;;4828172;29;32298;-65
2021/10/14 03:24:56;;;;;;;5.97;1.63;;;;;;;;;;4828100;29;31890;-64
2021/10/14 03:27:23;;;;;;;5.35;1.42;;;;;;;;;;4828227;29;34101;-66
2021/10/14 03:29:49;;;;;;;9.60;1.80;;;;;;;;;;4828106;29;32718;-65
2021/10/14 03:32:16;;;;;;;5.93;1.50;;;;;;;;;;4826588;29;32337;-66
2021/10/14 03:34:42;;;;;;;3.95;1.48;;;;;;;;;;4827949;29;32837;-65
2021/10/14 03:37:10;;;;;;;7.60;1.55;;;;;;;;;;4825280;29;32319;-67
2021/10/14 03:39:37;;;;;;;5.00;1.67;;;;;;;;;;4807581;29;34673;-66
2021/10/14 03:42:04;;;;;;;5.55;1.75;;;;;;;;;;4824279;29;32253;-66
2021/10/14 03:44:30;;;;;;;3.10;1.25;;;;;;;;;;4826845;29;32488;-67
2021/10/14 03:46:57;;;;;;;4.15;1.45;;;;;;;;;;4822500;29;32315;-67
2021/10/14 03:49:23;;;;;;;3.88;1.40;;;;;;;;;;4826482;29;35433;-66
2021/10/14 03:51:50;;;;;;;1.75;1.35;;;;;;;;;;4827649;29;32382;-67
2021/10/14 03:54:18;;;;;;;3.35;1.65;;;;;;;;;;4822745;29;32245;-67
2021/10/14 03:56:44;;;;;;;4.88;1.48;;;;;;;;;;4827385;29;32256;-65
2021/10/14 03:59:11;;;;;;;3.42;1.65;;;;;;;;;;4826852;29;32284;-67
2021/10/14 04:01:37;;;;;;;4.00;1.20;;;;;;;;;;4827154;29;34994;-66
2021/10/14 04:04:04;;;;;;;6.88;1.50;;;;;;;;;;4826892;29;32414;-66
2021/10/14 04:06:31;;;;;;;5.25;1.80;;;;;;;;;;4824949;29;32684;-65
2021/10/14 04:08:57;;;;;;;7.90;1.40;;;;;;;;;;4826742;29;32675;-67
2021/10/14 04:11:25;;;;;;;3.50;1.50;;;;;;;;;;4823982;29;34986;-66
2021/10/14 04:13:52;;;;;;;4.43;1.40;;;;;;;;;;4827243;29;32413;-66
2021/10/14 04:16:18;;;;;;;10.20;1.20;;;;;;;;;;4825306;29;32826;-68
2021/10/14 04:18:45;;;;;;;4.28;1.65;;;;;;;;;;4827567;29;32375;-66
2021/10/14 04:21:11;;;;;;;2.83;1.58;;;;;;;;;;4827429;29;32379;-67
2021/10/14 04:23:43;;;;;;;4.18;1.60;;;;;;;;;;4827338;29;35152;-65
2021/10/14 04:26:09;;;;;;;3.17;1.60;;;;;;;;;;4826581;29;32899;-66
2021/10/14 04:28:37;;;;;;;6.07;1.63;;;;;;;;;;4827330;29;32319;-66
2021/10/14 04:31:04;;;;;;;5.93;1.88;;;;;;;;;;4827230;29;32496;-65
2021/10/14 04:33:31;;;;;;;6.00;1.60;;;;;;;;;;4826795;29;34639;-66
2021/10/14 04:36:01;;;;;;;5.43;1.88;;;;;;;;;;4825913;29;32667;-64
2021/10/14 04:38:27;;;;;;;7.78;1.77;;;;;;;;;;4827068;29;32236;-65
2021/10/14 04:40:54;;;;;;;3.55;1.40;;;;;;;;;;4827074;29;32731;-66
2021/10/14 04:43:22;;;;;;;6.05;1.95;;;;;;;;;;4827096;29;32431;-64
2021/10/14 04:45:50;;;;;;;4.20;1.63;;;;;;;;;;4826889;29;34307;-67
2021/10/14 04:48:17;;;;;;;4.60;1.42;;;;;;;;;;4826917;29;32426;-65
2021/10/14 04:50:44;;;;;;;8.30;1.40;;;;;;;;;;4827059;29;32406;-64
2021/10/14 04:53:10;;;;;;;3.38;1.60;;;;;;;;;;4827154;29;32486;-65
2021/10/14 04:55:37;;;;;;;5.32;1.80;;;;;;;;;;4822257;29;35493;-65
2021/10/14 04:58:03;;;;;;;3.20;1.27;;;;;;;;;;4808578;29;32375;-65
2021/10/14 05:00:30;;;;;;;4.93;1.45;;;;;;;;;;4808833;29;32493;-65
2021/10/14 05:02:58;;;;;;;6.18;1.52;;;;;;;;;;4821208;29;32366;-64
2021/10/14 05:05:24;;;;;;;4.70;1.67;;;;;;;;;;4821817;29;32514;-65
2021/10/14 05:07:51;;;;;;;3.35;1.20;;;;;;;;;;4825573;29;35529;-64
2021/10/14 05:10:18;;;;;;;7.47;1.25;;;;;;;;;;4826356;29;32653;-66
2021/10/14 05:12:44;;;;;;;4.28;1.52;;;;;;;;;;4826442;29;32510;-63
2021/10/14 05:15:12;;;;;;;5.97;1.48;;;;;;;;;;4826873;29;32539;-64
2021/10/14 05:17:38;;;;;;;4.00;1.23;;;;;;;;;;4826501;29;34857;-65
2021/10/14 05:20:08;;;;;;;4.97;1.30;;;;;;;;;;4826674;29;32857;-65
2021/10/14 05:22:44;;;;;;;4.55;1.10;;;;;;;;;;4826590;29;32390;-64
2021/10/14 05:25:10;;;;;;;5.22;1.23;;;;;;;;;;4826354;29;32429;-67
2021/10/14 05:27:37;;;;;;;4.03;1.52;;;;;;;;;;4826466;29;32423;-65
2021/10/14 05:30:05;;;;;;;8.30;1.50;;;;;;;;;;4826223;29;35117;-63
2021/10/14 05:32:34;;;;;;;5.95;1.50;;;;;;;;;;4826477;29;32834;-64
2021/10/14 05:35:01;;;;;;;3.97;1.30;;;;;;;;;;4826226;29;32464;-64
2021/10/14 05:37:30;;;;;;;5.20;1.40;;;;;;;;;;4826462;29;32285;-64
2021/10/14 05:39:57;;;;;;;5.80;1.40;;;;;;;;;;4826249;29;34624;-66
2021/10/14 05:42:23;;;;;;;4.63;1.67;;;;;;;;;;4825943;29;32528;-65
2021/10/14 05:44:50;;;;;;;5.38;1.20;;;;;;;;;;4825958;29;32436;-63
2021/10/14 05:47:16;;;;;;;7.03;1.52;;;;;;;;;;4820992;29;32491;-65
2021/10/14 05:49:43;;;;;;;2.92;1.20;;;;;;;;;;4818979;29;32380;-66
2021/10/14 05:52:09;;;;;;;8.35;1.25;;;;;;;;;;4819934;29;34214;-64
2021/10/14 05:54:37;;;;;;;5.05;1.38;;;;;;;;;;4818711;29;32396;-65
2021/10/14 05:57:04;;;;;;;4.32;1.38;;;;;;;;;;4820787;29;32709;-65
2021/10/14 05:59:30;;;;;;;5.43;1.30;;;;;;;;;;4834401;29;32408;-64
2021/10/14 06:01:57;;;;;;;6.05;1.17;;;;;;;;;;4818435;29;33936;-65
2021/10/14 06:04:23;;;;;;;5.07;1.45;;;;;;;;;;4818189;29;32763;-64
2021/10/14 06:06:50;;;;;;;2.80;1.50;;;;;;;;;;4815716;29;32477;-64
2021/10/14 06:09:16;;;;;;;3.38;1.30;;;;;;;;;;4815829;29;32476;-65
2021/10/14 06:11:44;;;;;;;5.55;1.45;;;;;;;;;;4819109;29;32691;-65
2021/10/14 06:14:11;;;;;;;3.88;1.30;;;;;;;;;;4815384;29;34417;-65
2021/10/14 06:16:37;;;;;;;3.97;1.08;;;;;;;;;;4810168;29;32375;-65
2021/10/14 06:19:03;;;;;;;8.15;1.73;;;;;;;;;;4821858;29;32620;-65
2021/10/14 06:21:30;;;;;;;7.55;1.50;;;;;;;;;;4822861;29;32586;-65
2021/10/14 06:23:56;;;;;;;5.30;1.05;;;;;;;;;;4828974;29;35265;-67
2021/10/14 06:26:23;;;;;;;5.55;1.30;;;;;;;;;;4827489;29;32407;-65
2021/10/14 06:28:51;;;;;;;6.25;1.60;;;;;;;;;;4828925;29;32476;-63
2021/10/14 06:31:17;;;;;;;9.90;1.58;;;;;;;;;;4811821;29;32571;-65
2021/10/14 06:33:44;;;;;;;5.55;1.52;;;;;;;;;;4814634;29;32464;-68
2021/10/14 06:36:11;;;;;;;3.70;1.30;;;;;;;;;;4828493;29;34016;-64
2021/10/14 06:38:37;;;;;;;4.43;1.55;;;;;;;;;;4828255;29;32357;-67
2021/10/14 06:41:04;;;;;;;7.07;1.33;;;;;;;;;;4828624;29;32504;-67
2021/10/14 06:43:30;;;;;;;4.57;1.50;;;;;;;;;;4828319;29;32433;-65
2021/10/14 06:45:58;;;;;;;6.65;1.83;;;;;;;;;;4828635;29;35701;-65
2021/10/14 06:48:25;;;;;;;4.90;1.60;;;;;;;;;;4828688;29;32541;-66
2021/10/14 06:50:52;;;;;;;6.05;1.60;;;;;;;;;;4827342;29;32852;-66
2021/10/14 06:53:18;;;;;;;3.00;1.50;;;;;;;;;;4822473;29;32467;-66
2021/10/14 06:55:45;;;;;;;6.40;1.30;;;;;;;;;;4815907;29;32501;-67
2021/10/14 06:58:11;;;;;;;7.07;1.42;;;;;;;;;;4818557;29;34022;-65
2021/10/14 07:00:38;;;;;;;5.45;1.60;;;;;;;;;;4827305;29;32432;-65
2021/10/14 07:03:06;;;;;;;6.30;1.58;;;;;;;;;;4828157;29;32535;-65
2021/10/14 07:05:33;;;;;;;11.25;2.00;;;;;;;;;;4828024;29;32362;-65
2021/10/14 07:08:00;;;;;;;7.88;1.50;;;;;;;;;;4827809;29;35446;-64
2021/10/14 07:10:26;;;;;;;10.25;1.50;;;;;;;;;;4827893;29;32547;-66
2021/10/14 07:12:53;;;;;;;5.65;1.35;;;;;;;;;;4823319;29;32421;-66
2021/10/14 07:15:20;;;;;;;6.25;1.60;;;;;;;;;;4828045;29;32695;-66
2021/10/14 07:17:47;;;;;;;8.48;1.50;;;;;;;;;;4823690;29;32572;-64
2021/10/14 07:20:14;;;;;;;;;;;;;;;;;;4828333;29;34465;-65
2021/10/14 07:22:41;;;;;;;8.15;1.70;;;;;;;;;;4828025;29;32452;-68
2021/10/14 07:25:09;;;;;;;5.63;1.60;;;;;;;;;;4827968;29;32554;-68
2021/10/14 07:27:35;;;;;;;7.07;1.83;;;;;;;;;;4828479;29;32504;-67
2021/10/14 07:30:02;;;;;;;6.55;1.50;;;;;;;;;;4827710;29;35417;-67
2021/10/14 07:32:29;;;;;;;7.07;1.40;;;;;;;;;;4825108;29;32837;-66
2021/10/14 07:34:55;;;;;;;5.75;1.20;;;;;;;;;;4828097;29;32393;-67
2021/10/14 07:37:23;;;;;;;5.60;1.52;;;;;;;;;;4828121;29;32538;-65
2021/10/14 07:39:50;;;;;;;9.50;1.20;;;;;;;;;;4826522;29;32411;-65
2021/10/14 07:42:16;;;;;;;9.80;2.03;;;;;;;;;;4827457;29;34621;-65
2021/10/14 07:44:43;;;;;;;5.63;1.20;;;;;;;;;;4827824;29;32617;-66
2021/10/14 07:47:09;;;;;;;3.78;1.30;;;;;;;;;;4827726;29;32376;-66
2021/10/14 07:49:36;;;;;;;12.75;1.52;;;;;;;;;;4827941;29;32998;-65
2021/10/14 07:52:03;;;;;;;9.48;1.52;;;;;;;;;;4827590;29;34127;-65
2021/10/14 07:54:31;;;;;;;8.85;1.48;;;;;;;;;;4827862;29;32532;-66
2021/10/14 07:56:57;;;;;;;5.13;1.45;;;;;;;;;;4827757;29;32391;-68
2021/10/14 07:59:24;;;;;;;8.43;1.38;;;;;;;;;;4826855;29;32476;-68
2021/10/14 08:01:50;;;;;;;10.30;1.80;;;;;;;;;;4816568;29;32542;-65
2021/10/14 08:04:17;;;;;;;4.05;1.10;;;;;;;;;;4817453;29;35500;-66
2021/10/14 08:06:43;;;;;;;4.63;1.20;;;;;;;;;;4816948;29;32410;-66
2021/10/14 08:09:10;;;;;;;13.13;1.33;;;;;;;;;;4813850;29;32824;-65
2021/10/14 08:11:38;;;;;;;12.57;1.20;;;;;;;;;;4818073;29;32382;-67
2021/10/14 08:14:05;;;;;;;8.63;1.38;;;;;;;;;;4818435;29;34756;-68
2021/10/14 08:16:31;;;;;;;5.45;1.15;;;;;;;;;;4824217;29;32470;-68
2021/10/14 08:18:58;;;;;;;11.82;1.38;;;;;;;;;;4820765;29;32816;-66
2021/10/14 08:21:24;;;;;;;13.50;1.67;;;;;;;;;;4826410;29;32303;-67
2021/10/14 08:23:51;;;;;;;10.98;1.52;;;;;;;;;;4825927;29;33102;-64
2021/10/14 08:26:17;;;;;;;9.55;1.80;;;;;;;;;;4815433;29;34553;-66
2021/10/14 08:29:04;;;;;;;7.85;1.30;;;;;;;;;;4826598;29;32313;-68
2021/10/14 08:31:30;;;;;;;5.97;1.23;;;;;;;;;;4826167;29;32418;-66
2021/10/14 08:33:57;;;;;;;8.88;1.40;;;;;;;;;;4827018;29;32402;-66
2021/10/14 08:36:23;;;;;;;10.82;1.52;;;;;;;;;;4827019;29;33939;-66
2021/10/14 08:38:50;;;;;;;6.55;1.73;;;;;;;;;;4827062;29;32350;-65
2021/10/14 08:41:18;;;;;;;15.20;1.58;;;;;;;;;;4827084;29;32444;-65
2021/10/14 08:43:47;;;;;;;11.90;1.30;;;;;;;;;;4827011;29;32311;-66
2021/10/14 08:46:15;;;;;;;5.70;1.40;;;;;;;;;;4826921;29;32492;-64
2021/10/14 08:48:42;;;;;;;10.40;1.83;;;;;;;;;;4826683;29;34050;-68
2021/10/14 08:51:09;;;;;;;5.93;1.63;;;;;;;;;;4826882;29;32750;-65
2021/10/14 08:53:37;;;;;;;14.93;2.33;;;;;;;;;;4827012;29;32251;-65
2021/10/14 08:56:04;;;;;;;7.13;1.60;;;;;;;;;;4827072;29;32421;-66
2021/10/14 08:58:31;;;;;;;8.15;1.10;;;;;;;;;;4827200;29;34240;-65
2021/10/14 09:01:10;;;;;;;7.20;1.50;;;;;;;;;;4827167;29;32438;-67
2021/10/14 09:03:43;;;;;;;10.10;1.30;;;;;;;;;;4826782;29;32496;-68
2021/10/14 09:06:12;;;;;;;11.07;2.00;;;;;;;;;;4826785;29;32442;-66
2021/10/14 09:08:41;;;;;;;2.55;1.55;;;;;;;;;;4826852;29;32292;-66
2021/10/14 09:11:10;;;;;;;8.75;1.52;;;;;;;;;;4826163;29;34418;-66
2021/10/14 09:13:38;;;;;;;6.63;1.20;;;;;;;;;;4826950;29;32581;-68
2021/10/14 09:16:28;;;;;;;7.93;1.20;;;;;;;;;;4826745;29;32511;-66
2021/10/14 09:19:10;;;;;;;7.00;1.58;;;;;;;;;;4824354;29;32355;-66
2021/10/14 09:21:37;;;;;;;6.07;1.67;;;;;;;;;;4826535;29;34985;-66
2021/10/14 09:24:25;;;;;;;7.40;1.52;;;;;;;;;;4826361;29;32256;-66
2021/10/14 09:26:52;;;;;;;8.60;1.40;;;;;;;;;;4822681;29;32341;-67
2021/10/14 09:29:21;;;;;;;7.53;1.67;;;;;;;;;;4826373;29;32441;-68
2021/10/14 09:31:51;;;;;;;10.88;1.65;;;;;;;;;;4826941;29;32381;-65
2021/10/14 09:34:29;;;;;;;8.63;1.65;;;;;;;;;;4826397;29;35735;-66
2021/10/14 09:36:56;;;;;;;10.15;1.80;;;;;;;;;;4826489;29;32403;-66
2021/10/14 09:39:22;;;;;;;7.50;1.63;;;;;;;;;;4826330;29;32279;-65
2021/10/14 09:41:49;;;;;;;7.90;1.33;;;;;;;;;;4826533;29;32604;-66
2021/10/14 09:44:17;;;;;;;6.20;1.33;;;;;;;;;;4826289;29;34244;-66
2021/10/14 09:46:46;;;;;;;11.15;1.80;;;;;;;;;;4826282;29;32476;-69
2021/10/14 09:49:16;;;;;;;4.55;1.60;;;;;;;;;;4826261;29;32339;-65
2021/10/14 09:51:45;;;;;;;5.53;1.30;;;;;;;;;;4826052;29;32600;-66
2021/10/14 09:54:12;;;;;;;6.82;1.38;;;;;;;;;;4826042;29;32480;-67
2021/10/14 09:56:39;;;;;;;4.65;1.20;;;;;;;;;;4826029;29;34632;-65
2021/10/14 09:59:06;;;;;;;7.75;1.65;;;;;;;;;;4826111;29;32791;-66
2021/10/14 10:01:34;;;;;;;;;;;;;;;;;;4826293;29;32422;-65
2021/10/14 10:04:02;;;;;;;17.55;1.70;;;;;;;;;;4826243;29;32838;-66
2021/10/14 10:06:31;;;;;;;10.52;1.30;;;;;;;;;;4825955;29;34831;-66
2021/10/14 10:09:06;;;;;;;13.00;1.70;;;;;;;;;;4825824;29;32485;-66
2021/10/14 10:11:39;;;;;;;10.48;1.33;;;;;;;;;;4825129;29;32436;-65
2021/10/14 10:14:07;;;;;;;10.75;1.38;;;;;;;;;;4825662;29;32381;-67
2021/10/14 10:16:33;;;;;;;10.98;1.75;;;;;;;;;;4825855;29;32495;-66
2021/10/14 10:19:00;;;;;;;8.77;1.23;;;;;;;;;;4825858;29;32433;-65
2021/10/14 10:21:44;;;;;;;10.05;1.65;;;;;;;;;;4825725;29;32573;-65
2021/10/14 10:24:32;;;;;;;12.77;1.73;;;;;;;;;;4834675;29;32493;-66
2021/10/14 10:27:04;;;;;;;14.85;1.50;;;;;;;;;;4814851;29;32768;-66
2021/10/14 10:29:43;;;;;;;13.65;1.98;;;;;;;;;;4820938;29;36011;-67
2021/10/14 10:32:22;;;;;;;8.68;1.98;;;;;;;;;;4819691;29;32283;-66
2021/10/14 10:35:06;;;;;;;10.20;1.50;;;;;;;;;;4821124;29;32703;-66
2021/10/14 10:40:25;;;;;;;11.35;1.80;;;;;;;;;;4827137;29;32571;-65
2021/10/14 10:42:59;;;;;;;8.00;1.50;;;;;;;;;;4825403;29;32276;-65
2021/10/14 10:45:28;;;;;;;8.38;2.10;;;;;;;;;;4827607;29;32623;-65
2021/10/14 10:48:05;;;;;;;10.40;2.08;;;;;;;;;;4827496;29;32825;-66
2021/10/14 10:50:47;;;;;;;9.15;1.80;;;;;;;;;;4827835;29;32520;-64
2021/10/14 10:53:17;;;;;;;13.25;1.58;;;;;;;;;;4825148;29;35902;-65
2021/10/14 10:55:47;;;;;;;7.60;1.90;;;;;;;;;;4824122;29;32608;-66
2021/10/14 10:58:15;;;;;;;8.88;1.45;;;;;;;;;;4817081;29;32391;-64
2021/10/14 11:00:44;;;;;;;8.30;1.50;;;;;;;;;;4823187;29;32522;-65
2021/10/14 11:03:17;;;;;;;9.73;1.52;;;;;;;;;;4818317;29;32537;-64
2021/10/14 11:05:48;;;;;;;9.88;1.40;;;;;;;;;;4815569;29;32452;-65
2021/10/14 11:08:18;;;;;;;7.55;1.55;;;;;;;;;;4817483;29;32406;-66
2021/10/14 11:10:51;;;;;;;15.95;2.60;;;;;;;;;;4811307;29;32407;-64
2021/10/14 11:13:17;;;;;;;;;;;;;;;;;;4827429;29;32989;-66
2021/10/14 11:15:52;;;;;;;17.33;3.53;;;;;;;;;;4827261;29;34046;-66
2021/10/14 11:18:19;;;;;;;20.73;5.18;;;;;;;;;;4827430;29;32537;-66
2021/10/14 11:20:55;;;;;;;26.23;5.53;;;;;;;;;;4827376;29;32265;-64
2021/10/14 11:23:23;;;;;;;21.65;5.60;;;;;;;;;;4825568;29;32308;-66
2021/10/14 11:26:05;;;;;;;25.23;5.72;;;;;;;;;;4827252;29;32369;-65
2021/10/14 11:28:37;;;;;;;22.15;4.85;;;;;;;;;;4827105;29;32504;-66
2021/10/14 11:31:03;;;;;;;22.23;5.38;;;;;;;;;;4827086;29;32458;-66
2021/10/14 11:33:34;;;;;;;28.27;10.07;;;;;;;;;;4823121;29;32447;-66
2021/10/14 11:36:02;;;;;;;42.85;12.90;;;;;;;;;;4827581;29;32283;-65
2021/10/14 11:38:30;;;;;;;34.13;11.23;;;;;;;;;;4827165;29;35084;-65
2021/10/14 11:40:57;;;;;;;35.85;11.10;;;;;;;;;;4817363;29;32859;-65
2021/10/14 11:43:28;;;;;;;34.42;10.65;;;;;;;;;;4813282;29;32576;-65
2021/10/14 11:45:55;;;;;;;32.65;8.43;;;;;;;;;;4820971;29;32320;-65
2021/10/14 11:48:30;;;;;;;26.52;8.30;;;;;;;;;;4825195;29;33819;-67
2021/10/14 11:51:05;;;;;;;24.52;8.38;;;;;;;;;;4808642;29;32716;-65
2021/10/14 11:53:32;;;;;;;26.10;6.95;;;;;;;;;;4808330;29;32587;-65
2021/10/14 11:56:00;;;;;;;19.35;5.65;;;;;;;;;;4808257;29;32399;-67
2021/10/14 11:58:28;;;;;;;19.58;5.63;;;;;;;;;;4808545;29;32656;-66
2021/10/14 12:01:01;;;;;;;19.13;4.90;;;;;;;;;;4808389;29;33950;-66
2021/10/14 12:03:28;;;;;;;17.63;4.55;;;;;;;;;;4808707;29;32545;-65
2021/10/14 12:05:55;;;;;;;14.88;4.20;;;;;;;;;;4808518;29;32602;-66
2021/10/14 12:08:22;;;;;;;;;;;;;;;;;;4817565;29;32454;-64
2021/10/14 12:10:54;;;;;;;15.90;4.07;;;;;;;;;;4826648;29;32531;-66
2021/10/14 12:13:25;;;;;;;10.60;3.33;;;;;;;;;;4827384;29;32242;-64
2021/10/14 12:16:07;;;;;;;11.63;3.30;;;;;;;;;;4827416;29;32411;-65
2021/10/14 12:18:33;;;;;;;8.48;2.80;;;;;;;;;;4825964;29;32412;-65
2021/10/14 12:21:00;;;;;;;11.43;3.22;;;;;;;;;;4826224;29;32580;-65
2021/10/14 12:23:28;;;;;;;;;;;;;;;;;;4825573;29;36004;-65
2021/10/14 12:26:12;;;;;;;10.75;2.40;;;;;;;;;;4826945;29;32461;-65
2021/10/14 12:28:43;;;;;;;10.35;3.00;;;;;;;;;;4826733;29;32447;-66
2021/10/14 12:31:13;;;;;;;5.70;2.05;;;;;;;;;;4825854;29;32549;-65
2021/10/14 12:33:40;;;;;;;7.45;2.00;;;;;;;;;;4826022;29;34055;-65
2021/10/14 12:36:07;;;;;;;7.45;1.80;;;;;;;;;;4824815;29;32496;-65
2021/10/14 12:38:35;;;;;;;;;;;;;;;;;;4838917;29;32965;-66
2021/10/14 12:41:04;;;;;;;6.80;1.80;;;;;;;;;;4819537;29;32354;-65
2021/10/14 12:43:40;;;;;;;7.82;1.88;;;;;;;;;;4816135;29;32733;-66
2021/10/14 12:46:24;;;;;;;6.30;1.77;;;;;;;;;;4818271;29;33932;-66
2021/10/14 12:49:13;;;;;;;6.68;1.83;;;;;;;;;;4814219;29;32468;-67
2021/10/14 12:51:42;;;;;;;4.50;1.70;;;;;;;;;;4820647;29;32833;-64
2021/10/14 12:54:13;;;;;;;8.98;2.22;;;;;;;;;;4818698;29;32711;-67
2021/10/14 12:56:41;;;;;;;8.30;1.65;;;;;;;;;;4826232;29;34032;-65
2021/10/14 12:59:11;;;;;;;6.18;1.50;;;;;;;;;;4826537;29;32505;-66
2021/10/14 13:01:40;;;;;;;10.05;1.92;;;;;;;;;;4826744;29;32437;-66
2021/10/14 13:04:08;;;;;;;6.18;1.67;;;;;;;;;;4824495;29;32466;-66
2021/10/14 13:06:35;;;;;;;5.15;1.58;;;;;;;;;;4817834;29;32495;-65
2021/10/14 13:09:04;;;;;;;7.15;1.40;;;;;;;;;;4820183;29;35521;-67
2021/10/14 13:11:33;;;;;;;8.80;1.67;;;;;;;;;;4812154;29;32795;-65
2021/10/14 13:14:01;;;;;;;8.32;1.65;;;;;;;;;;4807731;29;32565;-64
2021/10/14 13:16:28;;;;;;;5.53;1.58;;;;;;;;;;4807906;29;32453;-64
2021/10/14 13:18:56;;;;;;;5.47;1.50;;;;;;;;;;4810347;29;34214;-64
2021/10/14 13:21:23;;;;;;;5.53;1.67;;;;;;;;;;4825210;29;32593;-64
2021/10/14 13:23:50;;;;;;;11.93;1.60;;;;;;;;;;4825512;29;32292;-66
2021/10/14 13:26:16;;;;;;;;;;;;;;;;;;4826485;29;32900;-65
2021/10/14 13:28:43;;;;;;;4.80;1.52;;;;;;;;;;4826749;29;32425;-65
2021/10/14 13:31:11;;;;;;;5.75;1.50;;;;;;;;;;4826508;29;34156;-64
2021/10/14 13:33:40;;;;;;;4.82;1.20;;;;;;;;;;4825927;29;32532;-63
2021/10/14 13:36:17;;;;;;;6.43;1.33;;;;;;;;;;4819395;29;32370;-63
2021/10/14 13:38:46;;;;;;;2.97;1.42;;;;;;;;;;4817779;29;31901;-64
2021/10/14 13:41:16;;;;;;;9.43;1.40;;;;;;;;;;4811120;29;34464;-65
2021/10/14 13:43:47;;;;;;;5.15;1.30;;;;;;;;;;4811931;29;32574;-63
2021/10/14 13:46:14;;;;;;;5.90;1.23;;;;;;;;;;4818842;29;32344;-63
2021/10/14 13:48:40;;;;;;;4.25;1.25;;;;;;;;;;4821024;29;32814;-64
2021/10/14 13:51:08;;;;;;;4.25;1.40;;;;;;;;;;4825370;29;32294;-64
2021/10/14 13:53:35;;;;;;;7.07;1.48;;;;;;;;;;4821093;29;34946;-63
2021/10/14 13:56:02;;;;;;;5.32;0.98;;;;;;;;;;4821411;29;32353;-64
2021/10/14 13:58:28;;;;;;;4.07;1.23;;;;;;;;;;4820883;29;32579;-63
2021/10/14 14:00:55;;;;;;;6.00;0.90;;;;;;;;;;4826299;29;32535;-65
2021/10/14 14:03:21;;;;;;;2.33;0.88;;;;;;;;;;4823964;29;34534;-66
2021/10/14 14:05:48;;;;;;;5.93;1.30;;;;;;;;;;4824535;29;32419;-66
2021/10/14 14:08:20;;;;;;;7.03;1.08;;;;;;;;;;4821254;29;32739;-66
2021/10/14 14:10:48;;;;;;;3.70;1.20;;;;;;;;;;4823034;29;32526;-66
2021/10/14 14:13:15;;;;;;;9.68;1.23;;;;;;;;;;4828734;29;32418;-64
2021/10/14 14:15:42;;;;;;;;;;;;;;;;;;4820432;29;35055;-66
2021/10/14 14:18:10;;;;;;;11.88;1.10;;;;;;;;;;4824315;29;32366;-67
2021/10/14 14:20:39;;;;;;;5.20;1.00;;;;;;;;;;4821088;29;33309;-66
2021/10/14 14:23:06;;;;;;;7.13;1.00;;;;;;;;;;4825611;29;32513;-66
2021/10/14 14:25:34;;;;;;;4.38;1.10;;;;;;;;;;4824526;29;34936;-67
2021/10/14 14:28:01;;;;;;;3.20;1.00;;;;;;;;;;4827458;29;32464;-66
2021/10/14 14:30:27;;;;;;;6.53;1.05;;;;;;;;;;4823988;29;32637;-67
2021/10/14 14:32:54;;;;;;;4.70;1.35;;;;;;;;;;4822989;29;32586;-66
2021/10/14 14:35:20;;;;;;;9.35;1.92;;;;;;;;;;4826708;29;32657;-68
2021/10/14 14:37:47;;;;;;;4.18;1.00;;;;;;;;;;4825265;29;35089;-66
2021/10/14 14:40:13;;;;;;;7.07;1.25;;;;;;;;;;4825140;29;32533;-67
2021/10/14 14:42:41;;;;;;;7.38;1.10;;;;;;;;;;4823899;29;32367;-65
2021/10/14 14:45:09;;;;;;;7.55;1.00;;;;;;;;;;4827589;29;32889;-65
2021/10/14 14:47:42;;;;;;;5.68;1.00;;;;;;;;;;4824143;29;35069;-66
2021/10/14 14:50:20;;;;;;;7.35;1.23;;;;;;;;;;4825686;29;32527;-67
2021/10/14 14:52:47;;;;;;;6.18;1.40;;;;;;;;;;4826144;29;32550;-64